createdAt,value
2023-04-16T00:04:08.863Z,9.22
2023-04-16T00:09:12.593Z,9.19
2023-04-16T00:14:16.297Z,9.22
2023-04-16T00:19:19.605Z,9.22
2023-04-16T00:24:23.125Z,9.18
2023-04-16T00:29:28.989Z,9.17
2023-04-16T00:34:32.510Z,9.18
2023-04-16T00:39:36.327Z,9.16
2023-04-16T00:44:39.648Z,9.12
2023-04-16T00:49:43.367Z,9.13
2023-04-16T00:54:47.498Z,9.21
2023-04-16T00:59:51.824Z,9.22
2023-04-16T01:04:55.547Z,9.19
2023-04-16T01:09:59.064Z,9.13
2023-04-16T01:15:03.713Z,9.07
2023-04-16T01:20:07.635Z,9.03
2023-04-16T01:25:16.041Z,8.97
2023-04-16T01:30:19.794Z,8.94
2023-04-16T01:35:23.196Z,8.99
2023-04-16T01:40:26.618Z,9.00
2023-04-16T01:45:32.494Z,9.02
2023-04-16T01:50:36.304Z,9.03
2023-04-16T01:55:39.722Z,9.11
2023-04-16T02:00:43.294Z,9.10
2023-04-16T02:05:47.671Z,9.02
2023-04-16T02:10:51.294Z,9.04
2023-04-16T02:15:54.821Z,9.08
2023-04-16T02:21:02.617Z,9.13
2023-04-16T02:26:06.229Z,9.11
2023-04-16T02:31:09.951Z,9.10
2023-04-16T02:36:13.364Z,9.04
2023-04-16T02:41:16.774Z,8.97
2023-04-16T02:46:20.347Z,8.87
2023-04-16T02:51:23.808Z,8.83
2023-04-16T02:56:27.323Z,8.78
2023-04-16T03:01:31.011Z,8.71
2023-04-16T03:06:34.458Z,8.60
2023-04-16T03:11:37.875Z,8.59
2023-04-16T03:16:41.798Z,8.61
2023-04-16T03:21:45.621Z,8.58
2023-04-16T03:26:49.136Z,8.57
2023-04-16T03:31:52.760Z,8.56
2023-04-16T03:36:56.170Z,8.52
2023-04-16T03:41:59.785Z,8.48
2023-04-16T03:47:03.301Z,8.47
2023-04-16T03:52:06.722Z,8.40
2023-04-16T03:57:10.230Z,8.37
2023-04-16T04:02:13.820Z,8.31
2023-04-16T04:07:17.468Z,8.28
2023-04-16T04:12:20.981Z,8.28
2023-04-16T04:17:24.413Z,8.28
2023-04-16T04:22:27.917Z,8.20
2023-04-16T04:27:31.330Z,8.11
2023-04-16T04:32:35.019Z,8.08
2023-04-16T04:37:38.665Z,8.05
2023-04-16T04:42:42.279Z,8.06
2023-04-16T04:47:45.821Z,8.08
2023-04-16T04:52:49.313Z,8.09
2023-04-16T04:57:52.823Z,8.10
2023-04-16T05:02:56.298Z,8.12
2023-04-16T05:07:59.962Z,8.09
2023-04-16T05:13:03.866Z,8.12
2023-04-16T05:18:07.204Z,8.24
2023-04-16T05:23:10.715Z,8.37
2023-04-16T05:28:14.225Z,8.55
2023-04-16T05:33:17.763Z,8.64
2023-04-16T05:38:21.366Z,8.76
2023-04-16T05:43:25.084Z,8.96
2023-04-16T05:48:28.496Z,9.10
2023-04-16T05:53:32.015Z,9.14
2023-04-16T05:59:11.823Z,9.18
2023-04-16T06:04:16.058Z,9.32
2023-04-16T06:09:23.012Z,9.48
2023-04-16T06:14:40.296Z,9.74
2023-04-16T06:24:49.244Z,10.42
2023-04-16T06:29:52.571Z,10.81
2023-04-16T06:34:56.765Z,11.07
2023-04-16T06:40:00.276Z,11.19
2023-04-16T06:45:04.612Z,10.89
2023-04-16T07:04:12.661Z,10.72
2023-04-16T07:09:18.498Z,10.51
2023-04-16T07:14:22.235Z,10.48
2023-04-16T07:19:26.247Z,10.41
2023-04-16T07:24:30.930Z,10.52
2023-04-16T07:29:34.406Z,10.68
2023-04-16T07:34:38.899Z,10.78
2023-04-16T07:39:51.009Z,10.93
2023-04-16T07:44:57.141Z,11.07
2023-04-16T07:50:00.628Z,11.09
2023-04-16T07:55:04.575Z,11.19
2023-04-16T08:00:09.349Z,11.30
2023-04-16T08:05:13.655Z,11.44
2023-04-16T08:10:21.137Z,11.72
2023-04-16T08:15:25.717Z,11.74
2023-04-16T08:20:29.429Z,11.55
2023-04-16T08:25:32.943Z,11.63
2023-04-16T08:30:36.558Z,11.94
2023-04-16T08:35:40.180Z,12.43
2023-04-16T08:40:45.091Z,12.87
2023-04-16T08:45:49.265Z,13.11
2023-04-16T08:50:55.325Z,13.14
2023-04-16T08:56:03.963Z,12.80
2023-04-16T09:01:11.192Z,12.87
2023-04-16T09:06:16.272Z,12.47
2023-04-16T09:11:20.757Z,11.95
2023-04-16T09:16:25.423Z,11.60
2023-04-16T09:21:28.830Z,11.41
2023-04-16T09:26:33.151Z,11.10
2023-04-16T09:31:36.708Z,11.03
2023-04-16T09:36:40.286Z,10.98
2023-04-16T09:41:44.002Z,10.82
2023-04-16T09:46:47.626Z,10.87
2023-04-16T09:51:54.828Z,11.22
2023-04-16T09:57:01.310Z,11.45
2023-04-16T10:02:15.670Z,11.71
2023-04-16T10:07:20.856Z,11.96
2023-04-16T10:12:24.153Z,12.22
2023-04-16T10:17:30.318Z,12.85
2023-04-16T10:22:34.254Z,13.33
2023-04-16T10:27:38.431Z,13.44
2023-04-16T10:32:42.752Z,13.43
2023-04-16T10:37:47.746Z,13.24
2023-04-16T10:42:56.094Z,13.14
2023-04-16T10:47:59.559Z,13.33
2023-04-16T10:53:25.983Z,13.07
2023-04-16T10:58:36.138Z,12.58
2023-04-16T11:03:49.537Z,12.07
2023-04-16T11:08:55.278Z,11.72
2023-04-16T11:13:59.274Z,11.61
2023-04-16T11:19:02.694Z,11.53
2023-04-16T11:24:06.509Z,11.48
2023-04-16T11:29:16.282Z,11.46
2023-04-16T11:34:20.607Z,11.30
2023-04-16T11:39:24.127Z,11.28
2023-04-16T11:44:28.516Z,11.23
2023-04-16T11:49:32.071Z,11.17
2023-04-16T11:54:37.225Z,11.09
2023-04-16T12:00:02.165Z,11.14
2023-04-16T12:05:39.326Z,11.17
2023-04-16T12:10:55.774Z,11.16
2023-04-16T12:15:59.178Z,11.05
2023-04-16T12:21:05.977Z,10.90
2023-04-16T12:26:14.623Z,10.83
2023-04-16T12:31:17.981Z,10.70
2023-04-16T12:36:22.253Z,10.60
2023-04-16T12:41:25.883Z,10.50
2023-04-16T12:46:29.338Z,10.47
2023-04-16T12:51:34.135Z,10.53
2023-04-16T12:56:37.444Z,10.68
2023-04-16T13:01:41.012Z,10.74
2023-04-16T13:06:45.751Z,10.87
2023-04-16T13:11:49.122Z,11.02
2023-04-16T13:16:52.633Z,11.12
2023-04-16T13:21:56.250Z,11.32
2023-04-16T13:26:59.973Z,11.36
2023-04-16T13:32:05.066Z,11.34
2023-04-16T13:37:08.437Z,11.28
2023-04-16T13:42:11.846Z,11.29
2023-04-16T13:47:15.367Z,11.35
2023-04-16T13:52:18.878Z,11.35
2023-04-16T13:57:23.004Z,11.56
2023-04-16T14:02:26.920Z,11.68
2023-04-16T14:07:30.765Z,11.72
2023-04-16T14:12:34.371Z,11.73
2023-04-16T14:17:37.985Z,11.85
2023-04-16T14:22:42.798Z,12.13
2023-04-16T14:27:46.458Z,12.29
2023-04-16T14:32:49.782Z,12.48
2023-04-16T14:37:53.497Z,12.76
2023-04-16T14:42:56.903Z,13.27
2023-04-16T14:48:00.498Z,13.60
2023-04-16T14:53:05.165Z,13.59
2023-04-16T14:58:08.615Z,13.58
2023-04-16T15:03:12.274Z,13.56
2023-04-16T15:08:16.631Z,13.43
2023-04-16T15:13:19.952Z,13.09
2023-04-16T15:18:24.381Z,12.71
2023-04-16T15:23:27.996Z,12.24
2023-04-16T15:28:31.826Z,11.80
2023-04-16T15:33:35.444Z,11.57
2023-04-16T15:38:38.953Z,11.35
2023-04-16T15:43:42.366Z,11.07
2023-04-16T15:48:45.983Z,10.89
2023-04-16T15:53:50.827Z,10.81
2023-04-16T15:58:54.243Z,10.78
2023-04-16T16:03:57.843Z,10.71
2023-04-16T16:09:02.005Z,10.65
2023-04-16T16:14:05.613Z,10.64
2023-04-16T16:19:09.444Z,10.56
2023-04-16T16:24:14.174Z,10.52
2023-04-16T16:29:17.490Z,10.49
2023-04-16T16:34:21.558Z,10.38
2023-04-16T16:39:25.689Z,10.32
2023-04-16T16:44:29.158Z,10.21
2023-04-16T16:49:32.573Z,10.14
2023-04-16T16:54:36.027Z,10.11
2023-04-16T16:59:39.602Z,10.10
2023-04-16T17:04:43.117Z,10.08
2023-04-16T17:09:46.669Z,10.08
2023-04-16T17:14:51.399Z,10.02
2023-04-16T17:19:54.752Z,9.94
2023-04-16T17:24:58.027Z,9.93
2023-04-16T17:30:02.955Z,9.92
2023-04-16T17:35:07.187Z,9.85
2023-04-16T17:40:12.854Z,9.85
2023-04-16T17:45:16.574Z,9.82
2023-04-16T17:50:20.034Z,9.72
2023-04-16T17:55:23.912Z,9.68
2023-04-16T18:00:27.521Z,9.62
2023-04-16T18:05:31.076Z,9.65
2023-04-16T18:10:34.662Z,9.62
2023-04-16T18:15:38.758Z,9.62
2023-04-16T18:20:42.510Z,9.62
2023-04-16T18:25:48.815Z,9.57
2023-04-16T18:30:52.957Z,9.56
2023-04-16T18:35:56.335Z,9.63
2023-04-16T18:41:00.137Z,9.65
2023-04-16T18:46:03.720Z,9.62
2023-04-16T18:51:08.004Z,9.60
2023-04-16T18:56:11.926Z,9.62
2023-04-16T19:01:16.928Z,9.61
2023-04-16T19:06:20.599Z,9.60
2023-04-16T19:11:24.730Z,9.57
2023-04-16T19:16:28.284Z,9.51
2023-04-16T19:21:32.890Z,9.48
2023-04-16T19:26:36.403Z,9.45
2023-04-16T19:31:40.044Z,9.41
2023-04-16T19:36:45.538Z,9.38
2023-04-16T19:41:48.905Z,9.38
2023-04-16T19:46:52.525Z,9.35
2023-04-16T19:51:56.030Z,9.34
2023-04-16T19:56:59.957Z,9.27
2023-04-16T20:02:03.758Z,9.27
2023-04-16T20:07:07.249Z,9.28
2023-04-16T20:12:11.159Z,9.25
2023-04-16T20:17:19.805Z,9.21
2023-04-16T20:22:23.265Z,9.18
2023-04-16T20:27:26.727Z,9.19
2023-04-16T20:32:30.412Z,9.13
2023-04-16T20:37:38.610Z,9.01
2023-04-16T20:42:46.492Z,8.87
2023-04-16T20:47:51.219Z,8.81
2023-04-16T20:52:54.656Z,8.84
2023-04-16T20:57:58.217Z,8.94
2023-04-16T21:03:01.931Z,9.04
2023-04-16T21:08:06.067Z,8.99
2023-04-16T21:13:11.226Z,9.04
2023-04-16T21:18:14.743Z,9.08
2023-04-16T21:23:18.151Z,9.08
2023-04-16T21:28:21.675Z,9.06
2023-04-16T21:33:25.187Z,9.10
2023-04-16T21:38:28.703Z,9.12
2023-04-16T21:43:32.827Z,9.05
2023-04-16T21:48:36.149Z,9.00
2023-04-16T21:53:39.669Z,8.95
2023-04-16T21:58:43.171Z,8.90
2023-04-16T22:09:25.083Z,8.86
2023-04-16T22:14:29.763Z,8.90
2023-04-16T22:19:35.125Z,8.91
2023-04-16T22:24:38.572Z,8.90
2023-04-16T22:29:42.052Z,8.89
2023-04-16T22:34:45.565Z,8.92
2023-04-16T22:39:49.085Z,8.88
2023-04-16T22:44:52.595Z,8.84
2023-04-16T22:49:56.010Z,8.82
2023-04-16T22:54:59.597Z,8.88
2023-04-16T23:00:06.385Z,8.96
2023-04-16T23:05:12.130Z,8.94
2023-04-16T23:10:15.805Z,8.94
2023-04-16T23:15:19.521Z,8.94
2023-04-16T23:20:22.836Z,8.88
2023-04-16T23:25:26.252Z,8.87
2023-04-16T23:30:29.767Z,8.88
2023-04-16T23:35:33.309Z,8.93
2023-04-16T23:40:36.690Z,8.93
2023-04-16T23:45:40.153Z,8.94
2023-04-16T23:50:43.621Z,8.96
2023-04-16T23:55:47.031Z,8.97
